Time;durP1;ratioP1;P1;durP2;ratioP2;P2;SDS_P1;SDS_P2;PMS_P1;PMS_P2;Temp;Humidity;BMP_temperature;BMP_pressure;BME280_temperature;BME280_humidity;BME280_pressure;Samples;Min_cycle;Max_cycle;Signal;HPM_P1;HPM_P2
2021/08/13 00:00:54;;;;;;;8.00;4.28;;;20.90;59.40;;;;;;5055879;28;20032;-37
2021/08/13 00:03:20;;;;;;;5.68;3.88;;;20.90;60.00;;;;;;5055545;28;20037;-35
2021/08/13 00:05:47;;;;;;;9.65;4.70;;;20.90;59.40;;;;;;5055897;28;20031;-35
2021/08/13 00:08:13;;;;;;;8.30;4.60;;;20.90;59.50;;;;;;5055480;28;20425;-37
2021/08/13 00:10:39;;;;;;;9.95;4.80;;;20.80;59.30;;;;;;5056055;28;20025;-35
2021/08/13 00:13:05;;;;;;;12.95;5.63;;;20.80;59.20;;;;;;5055531;28;20039;-35
2021/08/13 00:15:31;;;;;;;8.48;4.20;;;20.80;59.40;;;;;;5055398;28;20063;-36
2021/08/13 00:17:57;;;;;;;6.90;4.78;;;20.70;59.30;;;;;;5055426;28;20028;-36
2021/08/13 00:20:23;;;;;;;8.23;4.72;;;20.70;59.20;;;;;;5055609;28;20025;-35
2021/08/13 00:22:50;;;;;;;8.13;4.45;;;20.70;59.30;;;;;;5055218;28;20040;-35
2021/08/13 00:25:16;;;;;;;7.43;4.20;;;20.60;59.20;;;;;;5055651;28;20282;-37
2021/08/13 00:27:42;;;;;;;7.40;4.47;;;20.60;59.20;;;;;;5055238;28;20079;-37
2021/08/13 00:30:08;;;;;;;7.15;4.60;;;20.60;59.30;;;;;;5055440;28;20025;-36
2021/08/13 00:32:34;;;;;;;8.95;4.93;;;20.60;59.40;;;;;;5055168;28;20029;-36
2021/08/13 00:35:00;;;;;;;6.97;4.22;;;20.60;59.40;;;;;;5055305;28;20074;-37
2021/08/13 00:37:26;;;;;;;8.27;5.03;;;20.60;59.40;;;;;;5055335;28;20029;-36
2021/08/13 00:39:52;;;;;;;9.77;4.57;;;20.60;59.40;;;;;;5055377;28;20025;-34
2021/08/13 00:42:17;;;;;;;9.73;4.20;;;20.60;59.40;;;;;;5055124;28;20155;-36
2021/08/13 00:44:43;;;;;;;7.22;4.38;;;20.60;59.60;;;;;;5055304;28;20368;-36
2021/08/13 00:47:09;;;;;;;6.40;4.32;;;20.60;59.50;;;;;;5055050;28;20025;-36
2021/08/13 00:49:35;;;;;;;10.15;4.88;;;20.50;59.60;;;;;;5055012;28;20064;-38
2021/08/13 00:52:00;;;;;;;6.40;4.20;;;20.50;59.60;;;;;;5055404;28;20041;-36
2021/08/13 00:54:27;;;;;;;5.95;3.92;;;20.50;59.60;;;;;;5055425;28;20029;-35
2021/08/13 00:56:53;;;;;;;9.02;4.75;;;20.50;59.70;;;;;;5055102;28;20042;-35
2021/08/13 00:59:19;;;;;;;6.53;4.40;;;20.50;59.70;;;;;;5055703;28;20059;-34
2021/08/13 01:01:45;;;;;;;8.90;5.72;;;20.50;59.80;;;;;;5058923;28;20068;-35
2021/08/13 01:04:11;;;;;;;8.25;4.65;;;20.50;59.90;;;;;;5058844;28;20029;-36
2021/08/13 01:06:37;;;;;;;9.45;4.65;;;20.50;59.90;;;;;;5058536;28;20380;-35
2021/08/13 01:09:03;;;;;;;6.70;4.40;;;20.50;60.00;;;;;;5058553;28;20025;-37
2021/08/13 01:11:44;;;;;;;6.97;4.60;;;20.50;60.00;;;;;;5058640;28;20041;-34
2021/08/13 01:14:49;;;;;;;8.02;4.55;;;20.50;60.10;;;;;;5058717;28;20398;-35
2021/08/13 01:17:16;;;;;;;9.43;4.00;;;20.50;60.10;;;;;;5058227;28;20045;-36
2021/08/13 01:20:01;;;;;;;6.90;4.43;;;20.40;60.10;;;;;;5058710;28;20435;-34
2021/08/13 01:22:33;;;;;;;8.27;4.78;;;20.40;60.20;;;;;;5058173;28;20041;-35
2021/08/13 01:25:02;;;;;;;16.10;5.03;;;20.40;60.40;;;;;;5058173;28;20029;-35
2021/08/13 01:27:31;;;;;;;10.15;4.50;;;20.40;60.40;;;;;;5057119;28;20029;-35
2021/08/13 01:30:05;;;;;;;9.55;4.78;;;20.40;60.60;;;;;;5058438;28;20356;-35
2021/08/13 01:32:38;;;;;;;7.45;4.63;;;20.40;60.60;;;;;;5058274;28;20052;-37
2021/08/13 01:35:08;;;;;;;10.40;4.60;;;20.40;60.70;;;;;;5058213;28;20025;-36
2021/08/13 01:37:37;;;;;;;7.68;4.60;;;20.30;60.70;;;;;;5058310;28;20025;-36
2021/08/13 01:40:04;;;;;;;7.63;4.35;;;20.30;60.70;;;;;;5057168;28;20472;-36
2021/08/13 01:42:33;;;;;;;6.40;4.22;;;20.30;60.80;;;;;;5058085;28;20063;-36
2021/08/13 01:45:00;;;;;;;5.60;4.30;;;20.30;60.80;;;;;;5058029;28;20522;-37
2021/08/13 01:47:27;;;;;;;7.78;4.72;;;20.20;61.40;;;;;;5057897;28;20086;-34
2021/08/13 01:49:54;;;;;;;9.55;4.35;;;20.30;61.00;;;;;;5057970;28;20111;-36
2021/08/13 01:52:21;;;;;;;8.85;4.97;;;20.20;61.00;;;;;;5057941;28;20365;-35
2021/08/13 01:54:48;;;;;;;6.95;4.13;;;20.20;61.00;;;;;;5058005;28;20029;-36
2021/08/13 01:57:14;;;;;;;6.22;4.65;;;20.20;61.00;;;;;;5057832;28;20037;-36
2021/08/13 01:59:40;;;;;;;6.78;4.43;;;20.20;61.10;;;;;;5057854;28;20412;-35
2021/08/13 02:02:06;;;;;;;8.23;4.05;;;20.20;61.20;;;;;;5057852;28;20033;-36
2021/08/13 02:04:32;;;;;;;6.85;4.50;;;20.20;61.20;;;;;;5057545;28;20143;-35
2021/08/13 02:06:59;;;;;;;6.93;4.63;;;20.10;61.30;;;;;;5057803;28;20039;-36
2021/08/13 02:09:25;;;;;;;9.27;4.65;;;20.10;61.30;;;;;;5057425;28;20025;-38
2021/08/13 02:11:53;;;;;;;8.77;5.20;;;20.10;61.40;;;;;;5057023;28;20440;-35
2021/08/13 02:14:19;;;;;;;11.02;5.07;;;20.10;61.50;;;;;;5057656;28;20421;-36
2021/08/13 02:16:53;;;;;;;9.27;5.00;;;20.10;61.60;;;;;;5057079;28;20072;-37
2021/08/13 02:19:56;;;;;;;7.38;4.60;;;20.00;61.80;;;;;;5057583;28;20342;-36
2021/08/13 02:22:22;;;;;;;9.95;5.68;;;20.00;62.40;;;;;;5055832;28;20041;-36
2021/08/13 02:24:48;;;;;;;9.63;4.43;;;20.00;61.90;;;;;;5057313;28;20029;-37
2021/08/13 02:27:15;;;;;;;9.15;4.75;;;19.90;61.80;;;;;;5056750;28;20041;-37
2021/08/13 02:29:40;;;;;;;7.85;4.85;;;19.90;62.00;;;;;;5057249;28;20025;-36
2021/08/13 02:32:07;;;;;;;7.28;4.50;;;19.90;62.10;;;;;;5056922;28;20032;-35
2021/08/13 02:34:33;;;;;;;9.57;4.90;;;19.80;62.30;;;;;;5056863;28;20033;-35
2021/08/13 02:37:09;;;;;;;10.80;5.53;;;19.80;62.40;;;;;;5057007;28;20324;-36
2021/08/13 02:39:50;;;;;;;7.50;4.97;;;19.80;62.60;;;;;;5056893;28;20055;-36
2021/08/13 02:42:20;;;;;;;9.38;5.20;;;19.70;62.60;;;;;;5056773;28;20033;-34
2021/08/13 02:44:51;;;;;;;7.70;5.10;;;19.70;62.80;;;;;;5056930;28;20463;-34
2021/08/13 02:47:18;;;;;;;8.95;4.82;;;19.70;62.90;;;;;;5057043;28;20053;-36
2021/08/13 02:49:50;;;;;;;11.30;5.30;;;19.60;62.90;;;;;;5056788;28;20032;-35
2021/08/13 02:52:19;;;;;;;8.85;4.78;;;19.60;63.20;;;;;;5056591;28;20025;-36
2021/08/13 02:54:47;;;;;;;9.23;5.00;;;19.60;63.30;;;;;;5057076;28;20029;-35
2021/08/13 02:57:13;;;;;;;11.63;5.30;;;19.60;63.40;;;;;;5056713;28;20269;-35
2021/08/13 02:59:41;;;;;;;8.27;4.47;;;19.60;63.40;;;;;;5056493;28;20174;-37
2021/08/13 03:02:07;;;;;;;10.60;4.95;;;19.60;63.50;;;;;;5056729;28;20362;-36
2021/08/13 03:04:34;;;;;;;9.38;4.80;;;19.60;63.50;;;;;;5056329;28;20025;-36
2021/08/13 03:07:00;;;;;;;6.53;4.30;;;19.60;63.60;;;;;;5056329;28;20122;-35
2021/08/13 03:09:27;;;;;;;9.15;4.68;;;19.60;63.60;;;;;;5056259;28;20029;-36
2021/08/13 03:11:54;;;;;;;7.82;5.30;;;19.60;63.70;;;;;;5056462;28;20060;-35
2021/08/13 03:14:21;;;;;;;9.15;5.65;;;19.60;63.70;;;;;;5056199;28;20024;-34
2021/08/13 03:16:48;;;;;;;8.23;5.90;;;19.50;63.70;;;;;;5056035;28;20456;-34
2021/08/13 03:19:15;;;;;;;8.75;5.30;;;19.50;63.90;;;;;;5056336;28;20055;-36
2021/08/13 03:21:44;;;;;;;8.63;4.72;;;19.50;64.00;;;;;;5056091;28;20417;-36
2021/08/13 03:24:12;;;;;;;8.75;4.65;;;19.50;64.10;;;;;;5055144;28;20025;-37
2021/08/13 03:26:39;;;;;;;6.05;4.63;;;19.50;64.10;;;;;;5056194;28;20040;-37
2021/08/13 03:29:05;;;;;;;8.65;4.50;;;19.50;64.20;;;;;;5055901;28;20013;-37
2021/08/13 03:31:41;;;;;;;7.20;4.70;;;19.50;64.30;;;;;;5055634;28;20112;-37
2021/08/13 03:34:08;;;;;;;7.53;4.32;;;19.50;64.30;;;;;;5055893;28;20040;-35
2021/08/13 03:36:35;;;;;;;6.88;4.68;;;19.50;64.40;;;;;;5055845;28;20290;-36
2021/08/13 03:39:01;;;;;;;7.57;4.53;;;19.50;64.30;;;;;;5055888;28;20066;-37
2021/08/13 03:41:27;;;;;;;17.15;4.55;;;19.50;64.20;;;;;;5056107;28;20033;-36
2021/08/13 03:43:53;;;;;;;8.13;4.90;;;19.50;64.30;;;;;;5055633;28;20033;-35
2021/08/13 03:46:19;;;;;;;9.02;4.43;;;19.60;64.30;;;;;;5056098;28;20039;-37
2021/08/13 03:48:44;;;;;;;6.75;4.20;;;19.60;64.30;;;;;;5055943;28;20033;-34
2021/08/13 03:51:10;;;;;;;10.90;4.70;;;19.60;64.50;;;;;;5056300;28;20028;-34
2021/08/13 03:53:36;;;;;;;7.57;4.60;;;19.60;64.30;;;;;;5055702;28;20341;-35
2021/08/13 03:56:02;;;;;;;7.72;4.78;;;19.70;64.30;;;;;;5056235;28;20032;-34
2021/08/13 03:58:27;;;;;;;10.90;4.93;;;19.70;64.20;;;;;;5055535;28;20037;-35
2021/08/13 04:00:53;;;;;;;9.30;5.10;;;19.70;64.10;;;;;;5055864;28;20033;-35
2021/08/13 04:03:18;;;;;;;9.82;5.65;;;19.70;64.00;;;;;;5055695;28;20421;-37
2021/08/13 04:05:44;;;;;;;11.30;5.43;;;19.70;63.90;;;;;;5055830;28;20028;-35
2021/08/13 04:08:10;;;;;;;10.52;5.85;;;19.70;64.00;;;;;;5055447;28;20120;-34
2021/08/13 04:10:35;;;;;;;10.95;5.57;;;19.80;64.10;;;;;;5055821;28;20111;-35
2021/08/13 04:13:01;;;;;;;7.03;4.95;;;19.80;63.90;;;;;;5055593;28;20120;-37
2021/08/13 04:15:28;;;;;;;7.13;4.82;;;19.80;63.80;;;;;;5055116;28;20500;-37
2021/08/13 04:17:55;;;;;;;16.60;5.30;;;19.80;64.00;;;;;;5055475;28;20104;-35
2021/08/13 04:20:21;;;;;;;16.00;5.47;;;19.80;63.90;;;;;;5055389;28;20025;-37
2021/08/13 04:22:46;;;;;;;9.88;5.93;;;19.90;63.80;;;;;;5055145;28;20076;-38
2021/08/13 04:25:12;;;;;;;6.65;4.78;;;19.90;63.60;;;;;;5055647;28;20048;-37
2021/08/13 04:27:38;;;;;;;8.50;5.45;;;19.90;63.70;;;;;;5055112;28;20079;-37
2021/08/13 04:30:04;;;;;;;8.50;4.65;;;19.90;63.70;;;;;;5055542;28;20052;-36
2021/08/13 04:32:30;;;;;;;13.35;5.03;;;19.90;63.90;;;;;;5053959;28;20029;-37
2021/08/13 04:34:56;;;;;;;9.68;4.90;;;20.00;64.00;;;;;;5056830;28;20055;-37
2021/08/13 04:37:21;;;;;;;9.23;4.88;;;20.00;63.90;;;;;;5057656;28;20048;-36
2021/08/13 04:39:47;;;;;;;6.90;4.90;;;20.10;63.90;;;;;;5059029;28;20021;-35
2021/08/13 04:42:13;;;;;;;11.65;5.85;;;20.10;63.80;;;;;;5058644;28;20039;-37
2021/08/13 04:44:38;;;;;;;7.50;4.93;;;20.20;63.80;;;;;;5058802;28;20041;-35
2021/08/13 04:47:04;;;;;;;15.52;7.05;;;20.20;63.70;;;;;;5058712;28;20090;-35
2021/08/13 04:49:32;;;;;;;8.50;5.53;;;20.30;63.60;;;;;;5058784;28;20090;-35
2021/08/13 04:51:58;;;;;;;9.20;5.22;;;20.30;63.50;;;;;;5058637;28;20447;-37
2021/08/13 04:54:23;;;;;;;8.43;5.30;;;20.40;63.40;;;;;;5058985;28;20025;-35
2021/08/13 04:56:49;;;;;;;8.15;4.90;;;20.40;63.30;;;;;;5058709;28;20029;-36
2021/08/13 04:59:15;;;;;;;10.32;5.60;;;20.50;63.80;;;;;;5058611;28;20071;-36
2021/08/13 05:01:40;;;;;;;6.57;4.80;;;20.50;63.00;;;;;;5058299;28;20086;-36
2021/08/13 05:04:07;;;;;;;7.40;5.40;;;20.60;63.00;;;;;;5058758;28;20068;-35
2021/08/13 05:06:33;;;;;;;12.98;6.35;;;20.60;62.80;;;;;;5058286;28;20040;-35
2021/08/13 05:08:59;;;;;;;13.05;5.25;;;20.70;62.80;;;;;;5058339;28;20029;-35
2021/08/13 05:11:24;;;;;;;8.95;5.05;;;20.70;63.10;;;;;;5058248;28;20104;-37
2021/08/13 05:13:50;;;;;;;8.10;5.05;;;20.70;63.10;;;;;;5058212;28;20112;-35
2021/08/13 05:16:16;;;;;;;13.35;5.53;;;20.80;63.40;;;;;;5058202;28;20046;-37
2021/08/13 05:18:41;;;;;;;19.85;6.18;;;20.80;63.50;;;;;;5058417;28;20055;-37
2021/08/13 05:21:07;;;;;;;7.78;4.85;;;20.90;63.70;;;;;;5058384;28;20305;-35
2021/08/13 05:23:33;;;;;;;11.35;5.20;;;20.90;63.60;;;;;;5058007;28;20087;-35
2021/08/13 05:26:00;;;;;;;7.40;5.13;;;21.00;63.40;;;;;;5058255;28;20043;-35
2021/08/13 05:28:26;;;;;;;11.68;5.30;;;21.10;63.50;;;;;;5058108;28;20083;-35
2021/08/13 05:30:52;;;;;;;8.07;5.53;;;21.10;63.60;;;;;;5057906;28;20482;-38
2021/08/13 05:33:17;;;;;;;9.93;6.22;;;21.20;63.60;;;;;;5057747;28;20124;-37
2021/08/13 05:35:43;;;;;;;13.13;5.82;;;21.30;63.50;;;;;;5058004;28;20120;-34
2021/08/13 05:38:09;;;;;;;8.05;4.97;;;21.30;63.10;;;;;;5056318;28;20037;-37
2021/08/13 05:40:36;;;;;;;9.02;5.18;;;21.40;63.10;;;;;;5057782;28;20025;-37
2021/08/13 05:43:02;;;;;;;7.78;5.15;;;21.50;63.20;;;;;;5057683;28;20108;-35
2021/08/13 05:45:28;;;;;;;8.38;5.03;;;21.50;63.10;;;;;;5057517;28;20032;-35
2021/08/13 05:47:54;;;;;;;20.00;6.30;;;21.60;63.00;;;;;;5056778;28;20032;-35
2021/08/13 05:50:19;;;;;;;6.95;4.70;;;21.60;62.90;;;;;;5057675;28;20021;-35
2021/08/13 05:52:45;;;;;;;11.13;6.38;;;21.70;62.80;;;;;;5057678;28;20378;-35
2021/08/13 05:55:12;;;;;;;10.18;5.40;;;21.70;62.60;;;;;;5057214;28;20617;-36
2021/08/13 05:57:38;;;;;;;10.68;5.50;;;21.70;62.70;;;;;;5057688;28;20072;-35
2021/08/13 06:00:06;;;;;;;9.82;5.70;;;21.80;62.80;;;;;;5057487;28;20080;-38
2021/08/13 06:02:32;;;;;;;8.50;5.30;;;21.80;62.60;;;;;;5057100;28;20033;-35
2021/08/13 06:04:58;;;;;;;12.02;5.93;;;21.80;62.80;;;;;;5056866;28;20078;-35
2021/08/13 06:07:24;;;;;;;7.18;5.18;;;21.80;62.70;;;;;;5057340;28;20086;-35
2021/08/13 06:09:50;;;;;;;7.05;5.00;;;21.80;62.90;;;;;;5057511;28;20025;-38
2021/08/13 06:12:16;;;;;;;8.43;5.40;;;21.90;63.10;;;;;;5057048;28;20432;-37
2021/08/13 06:14:41;;;;;;;8.15;4.72;;;22.00;63.30;;;;;;5057053;28;20029;-34
2021/08/13 06:17:08;;;;;;;8.40;5.20;;;22.10;63.30;;;;;;5056769;28;20482;-37
2021/08/13 06:19:33;;;;;;;7.78;5.35;;;22.20;63.00;;;;;;5056651;28;20028;-35
2021/08/13 06:21:59;;;;;;;8.23;5.47;;;22.20;63.00;;;;;;5056960;28;20025;-37
2021/08/13 06:24:26;;;;;;;8.90;5.32;;;22.20;63.30;;;;;;5056565;28;20095;-35
2021/08/13 06:26:52;;;;;;;8.32;4.82;;;22.30;63.90;;;;;;5056537;28;20029;-35
2021/08/13 06:29:20;;;;;;;7.18;4.80;;;22.30;63.40;;;;;;5056639;28;20321;-37
2021/08/13 06:31:47;;;;;;;8.77;5.00;;;22.40;63.50;;;;;;5056380;28;20471;-35
2021/08/13 06:34:13;;;;;;;9.35;4.93;;;22.40;63.20;;;;;;5057096;28;20344;-37
2021/08/13 06:36:39;;;;;;;7.40;4.95;;;22.50;63.30;;;;;;5056713;28;20037;-38
2021/08/13 06:39:04;;;;;;;8.63;4.80;;;22.50;63.30;;;;;;5056649;28;20079;-35
2021/08/13 06:41:30;;;;;;;6.85;4.75;;;22.50;63.40;;;;;;5056811;28;20052;-35
2021/08/13 06:43:55;;;;;;;8.10;4.47;;;22.60;63.50;;;;;;5056814;28;20025;-35
2021/08/13 06:46:21;;;;;;;6.63;4.80;;;22.60;63.30;;;;;;5056860;28;20021;-34
2021/08/13 06:48:47;;;;;;;8.38;5.45;;;22.70;63.20;;;;;;5056445;28;20776;-37
2021/08/13 06:51:12;;;;;;;7.25;4.47;;;22.70;63.00;;;;;;5056721;28;20321;-37
2021/08/13 06:53:38;;;;;;;7.47;4.82;;;22.80;62.90;;;;;;5056198;28;20451;-35
2021/08/13 06:56:04;;;;;;;6.65;4.70;;;22.80;62.60;;;;;;5056648;28;20024;-37
2021/08/13 06:58:29;;;;;;;9.52;5.07;;;22.90;62.60;;;;;;5055978;28;20044;-35
2021/08/13 07:00:55;;;;;;;8.10;4.90;;;22.90;62.80;;;;;;5056531;28;20313;-34
2021/08/13 07:03:21;;;;;;;7.20;4.53;;;23.00;63.10;;;;;;5056015;28;20440;-35
2021/08/13 07:05:46;;;;;;;6.53;3.92;;;23.10;62.70;;;;;;5053324;28;20059;-35
2021/08/13 07:08:13;;;;;;;7.43;4.78;;;23.10;61.80;;;;;;5055784;28;20033;-35
2021/08/13 07:10:39;;;;;;;7.03;4.40;;;23.20;61.80;;;;;;5056230;28;20045;-35
2021/08/13 07:13:05;;;;;;;5.72;4.18;;;23.30;61.50;;;;;;5056046;28;20048;-35
2021/08/13 07:15:31;;;;;;;8.15;4.22;;;23.40;61.50;;;;;;5055557;28;20124;-35
2021/08/13 07:17:56;;;;;;;7.93;4.70;;;23.50;61.10;;;;;;5055683;28;20121;-37
2021/08/13 07:20:24;;;;;;;6.55;4.82;;;23.50;61.20;;;;;;5055741;28;20025;-36
2021/08/13 07:22:50;;;;;;;7.30;4.47;;;23.60;61.30;;;;;;5055559;28;20112;-37
2021/08/13 07:25:16;;;;;;;8.27;5.70;;;23.60;61.10;;;;;;5055964;28;20316;-35
2021/08/13 07:27:41;;;;;;;6.65;4.60;;;23.70;60.80;;;;;;5055721;28;20033;-35
2021/08/13 07:30:08;;;;;;;9.75;4.38;;;23.70;60.50;;;;;;5055480;28;20409;-36
2021/08/13 07:32:33;;;;;;;8.88;5.20;;;23.80;60.20;;;;;;5055646;28;20056;-35
2021/08/13 07:34:59;;;;;;;6.88;4.20;;;23.80;59.90;;;;;;5055392;28;20377;-35
2021/08/13 07:37:25;;;;;;;8.45;4.07;;;23.90;58.80;;;;;;5055574;28;20040;-37
2021/08/13 07:39:50;;;;;;;4.80;4.03;;;24.00;58.30;;;;;;5054888;28;20321;-35
2021/08/13 07:42:17;;;;;;;6.03;3.85;;;24.10;58.10;;;;;;5055191;28;20388;-35
2021/08/13 07:44:42;;;;;;;7.20;4.03;;;24.10;57.20;;;;;;5055326;28;20402;-37
2021/08/13 07:47:08;;;;;;;5.57;4.15;;;24.20;57.30;;;;;;5049528;28;20043;-35
2021/08/13 07:49:34;;;;;;;5.13;3.65;;;24.20;57.40;;;;;;5055358;28;20356;-35
2021/08/13 07:51:59;;;;;;;5.97;3.55;;;24.30;56.90;;;;;;5054928;28;20087;-37
2021/08/13 07:54:26;;;;;;;5.63;3.60;;;24.40;56.30;;;;;;5055167;28;20029;-38
2021/08/13 07:56:51;;;;;;;9.23;3.70;;;24.40;56.10;;;;;;5054883;28;20060;-35
2021/08/13 07:59:19;;;;;;;5.15;3.60;;;24.50;55.90;;;;;;5055202;28;20055;-37
2021/08/13 08:01:45;;;;;;;4.35;3.20;;;24.50;55.70;;;;;;5054885;28;20041;-37
2021/08/13 08:04:11;;;;;;;6.78;3.58;;;24.50;55.60;;;;;;5054795;28;20335;-42
2021/08/13 08:06:36;;;;;;;5.88;3.13;;;24.50;55.40;;;;;;5054642;28;20444;-35
2021/08/13 08:09:02;;;;;;;4.93;3.10;;;24.60;55.20;;;;;;5054668;28;20048;-34
2021/08/13 08:11:27;;;;;;;6.30;3.33;;;24.60;55.20;;;;;;5059186;28;20017;-36
2021/08/13 08:13:53;;;;;;;5.70;3.30;;;24.60;54.60;;;;;;5059048;28;20041;-35
2021/08/13 08:16:19;;;;;;;4.95;3.35;;;24.70;54.60;;;;;;5058487;28;20059;-38
2021/08/13 08:18:44;;;;;;;5.95;2.95;;;24.70;54.90;;;;;;5058964;28;20055;-38
2021/08/13 08:21:10;;;;;;;8.20;3.33;;;24.70;54.40;;;;;;5059163;28;20313;-37
2021/08/13 08:23:36;;;;;;;5.68;3.30;;;24.70;53.80;;;;;;5058835;28;20120;-39
2021/08/13 08:26:03;;;;;;;7.50;3.30;;;24.80;53.20;;;;;;5058741;28;20033;-38
2021/08/13 08:28:28;;;;;;;6.28;4.00;;;24.80;52.50;;;;;;5057751;28;20029;-35
2021/08/13 08:30:54;;;;;;;8.10;3.33;;;24.80;52.40;;;;;;5058823;28;20071;-36
2021/08/13 08:33:20;;;;;;;6.05;3.15;;;24.80;52.30;;;;;;5058951;28;20095;-35
2021/08/13 08:35:46;;;;;;;5.18;3.42;;;24.80;52.70;;;;;;5059205;28;20025;-35
2021/08/13 08:38:12;;;;;;;4.40;3.38;;;24.80;52.30;;;;;;5057890;28;20041;-38
2021/08/13 08:40:38;;;;;;;6.65;3.22;;;24.90;51.90;;;;;;5058663;28;20317;-37
2021/08/13 08:43:07;;;;;;;6.80;3.60;;;24.80;51.90;;;;;;5058465;28;20405;-35
2021/08/13 08:45:35;;;;;;;6.07;3.63;;;24.90;52.00;;;;;;5058798;28;20021;-37
2021/08/13 08:48:11;;;;;;;7.88;4.13;;;24.90;52.20;;;;;;5058561;28;20086;-36
2021/08/13 08:50:40;;;;;;;6.32;3.70;;;25.00;51.10;;;;;;5058933;28;20021;-37
2021/08/13 08:53:25;;;;;;;5.55;3.30;;;25.00;50.60;;;;;;5058589;28;20033;-35
2021/08/13 08:55:52;;;;;;;7.80;3.17;;;25.00;51.80;;;;;;5058553;28;20423;-36
2021/08/13 08:58:19;;;;;;;7.45;3.90;;;25.00;51.10;;;;;;5058996;28;20340;-37
2021/08/13 09:00:46;;;;;;;6.00;3.25;;;25.10;51.30;;;;;;5058054;28;20352;-37
2021/08/13 09:03:14;;;;;;;24.45;4.82;;;25.10;51.60;;;;;;5058313;28;20110;-34
2021/08/13 09:05:39;;;;;;;7.38;3.80;;;25.20;51.30;;;;;;5058696;28;20021;-34
2021/08/13 09:08:05;;;;;;;7.15;3.28;;;25.20;51.00;;;;;;5058622;28;20532;-35
2021/08/13 09:10:31;;;;;;;7.93;4.07;;;25.30;51.30;;;;;;5058626;28;20290;-36
2021/08/13 09:13:06;;;;;;;5.35;3.40;;;25.40;51.20;;;;;;5057647;28;20025;-36
2021/08/13 09:15:37;;;;;;;5.10;3.47;;;25.40;51.40;;;;;;5057966;28;20045;-34
2021/08/13 09:18:25;;;;;;;6.47;3.40;;;25.40;50.80;;;;;;5058388;28;20029;-37
2021/08/13 09:20:56;;;;;;;5.40;3.38;;;25.40;51.50;;;;;;5058276;28;20397;-36
2021/08/13 09:23:32;;;;;;;5.80;3.45;;;25.50;51.00;;;;;;5057937;28;20116;-34
2021/08/13 09:26:00;;;;;;;5.97;2.75;;;25.50;50.40;;;;;;5058520;28;20056;-37
2021/08/13 09:28:54;;;;;;;6.38;3.10;;;25.50;50.40;;;;;;5057744;28;20029;-37
2021/08/13 09:31:28;;;;;;;5.03;3.10;;;25.60;50.40;;;;;;5058246;28;20314;-37
2021/08/13 09:34:08;;;;;;;4.35;3.03;;;25.60;50.30;;;;;;5056687;28;20033;-37
2021/08/13 09:36:54;;;;;;;4.38;2.97;;;25.60;50.60;;;;;;5056339;28;20033;-34
2021/08/13 09:39:28;;;;;;;5.93;2.92;;;25.70;50.00;;;;;;5057699;28;20313;-37
2021/08/13 09:41:56;;;;;;;6.05;3.00;;;25.70;49.70;;;;;;5057589;28;20037;-37
2021/08/13 09:44:24;;;;;;;6.13;3.20;;;25.70;48.70;;;;;;5057236;28;20021;-34
2021/08/13 09:47:11;;;;;;;5.93;2.95;;;25.70;48.90;;;;;;5057564;28;20033;-34
2021/08/13 09:49:39;;;;;;;8.25;3.28;;;25.80;47.90;;;;;;5057669;28;20360;-34
2021/08/13 09:52:15;;;;;;;5.80;3.60;;;25.80;48.50;;;;;;5057130;28;20040;-37
2021/08/13 09:54:42;;;;;;;5.43;3.97;;;25.80;48.90;;;;;;5057186;28;20028;-37
2021/08/13 09:57:10;;;;;;;5.82;3.28;;;25.90;48.90;;;;;;5057170;28;20102;-37
2021/08/13 09:59:37;;;;;;;5.90;3.25;;;25.90;48.30;;;;;;5057248;28;20407;-36
2021/08/13 10:02:13;;;;;;;5.20;3.67;;;26.00;48.30;;;;;;5056961;28;20033;-34
2021/08/13 10:04:39;;;;;;;4.88;3.10;;;26.00;48.40;;;;;;5056965;28;20037;-37
2021/08/13 10:07:05;;;;;;;4.00;2.97;;;26.00;48.20;;;;;;5057303;28;20127;-37
2021/08/13 10:09:32;;;;;;;4.25;2.83;;;26.00;47.50;;;;;;5057241;28;20112;-34
2021/08/13 10:12:07;;;;;;;5.60;2.65;;;26.10;47.70;;;;;;5057077;28;20033;-36
2021/08/13 10:14:38;;;;;;;5.20;2.85;;;26.10;47.00;;;;;;5057027;28;20091;-35
2021/08/13 10:17:10;;;;;;;4.68;2.55;;;26.20;47.50;;;;;;5057035;28;20396;-35
2021/08/13 10:19:38;;;;;;;4.45;2.55;;;26.20;47.50;;;;;;5056733;28;20036;-36
2021/08/13 10:22:06;;;;;;;14.48;3.63;;;26.30;47.40;;;;;;5055568;28;20314;-37
2021/08/13 10:24:32;;;;;;;7.50;2.88;;;26.30;46.60;;;;;;5056887;28;20041;-38
2021/08/13 10:27:00;;;;;;;5.85;2.78;;;26.30;47.30;;;;;;5056477;28;20028;-37
2021/08/13 10:29:27;;;;;;;13.65;4.45;;;26.40;47.10;;;;;;5056794;28;20108;-37
2021/08/13 10:31:55;;;;;;;7.68;3.58;;;26.50;47.40;;;;;;5056499;28;20033;-37
2021/08/13 10:34:21;;;;;;;4.90;3.28;;;26.50;47.10;;;;;;5056472;28;20025;-34
2021/08/13 10:36:47;;;;;;;6.90;2.63;;;26.50;47.40;;;;;;5054000;28;20047;-35
2021/08/13 10:39:17;;;;;;;4.97;3.53;;;26.60;47.60;;;;;;5056404;28;20298;-34
2021/08/13 10:41:46;;;;;;;6.03;2.87;;;26.60;47.50;;;;;;5055768;28;20037;-35
2021/08/13 10:44:16;;;;;;;9.07;2.83;;;26.70;46.90;;;;;;5055804;28;20277;-35
2021/08/13 10:46:43;;;;;;;3.90;2.85;;;26.70;47.50;;;;;;5055743;28;20142;-34
2021/08/13 10:49:10;;;;;;;3.88;2.95;;;26.80;47.80;;;;;;5055982;28;20033;-36
2021/08/13 10:51:35;;;;;;;4.05;3.03;;;26.80;47.40;;;;;;5056008;28;20033;-37
2021/08/13 10:54:19;;;;;;;6.10;3.10;;;26.90;47.10;;;;;;5056101;28;20432;-37
2021/08/13 10:56:48;;;;;;;16.63;12.55;;;27.00;46.80;;;;;;5055761;28;20037;-34
2021/08/13 10:59:52;;;;;;;4.78;3.78;;;27.10;46.20;;;;;;5055894;28;20029;-37
2021/08/13 11:02:18;;;;;;;5.95;3.10;;;27.20;46.90;;;;;;5055508;28;20045;-34
2021/08/13 11:04:47;;;;;;;8.25;2.97;;;27.20;46.00;;;;;;5056128;28;20151;-35
2021/08/13 11:07:14;;;;;;;3.92;2.72;;;27.20;45.80;;;;;;5055619;28;20120;-35
2021/08/13 11:09:41;;;;;;;3.33;2.80;;;27.30;46.50;;;;;;5055994;28;20064;-35
2021/08/13 11:12:15;;;;;;;6.47;2.80;;;27.30;46.20;;;;;;5055608;28;20163;-38
2021/08/13 11:14:54;;;;;;;3.92;3.10;;;27.40;46.10;;;;;;5055254;28;20076;-38
2021/08/13 11:17:52;;;;;;;3.50;2.55;;;27.50;45.90;;;;;;5055618;28;20033;-38
2021/08/13 11:20:18;;;;;;;4.55;2.88;;;27.50;46.20;;;;;;5055552;28;20349;-34
2021/08/13 11:22:44;;;;;;;4.03;2.55;;;27.60;46.10;;;;;;5055658;28;20032;-35
2021/08/13 11:25:14;;;;;;;4.72;2.80;;;27.70;45.30;;;;;;5055982;28;20282;-37
2021/08/13 11:28:00;;;;;;;6.88;3.28;;;27.80;45.10;;;;;;5056236;28;20099;-37
2021/08/13 11:30:42;;;;;;;3.63;2.75;;;27.80;45.50;;;;;;5056103;28;20044;-37
2021/08/13 11:33:27;;;;;;;5.13;3.05;;;28.00;45.50;;;;;;5055878;28;20166;-35
2021/08/13 11:35:54;;;;;;;4.10;2.47;;;28.10;44.10;;;;;;5055600;28;20025;-35
2021/08/13 11:38:41;;;;;;;6.15;3.00;;;28.10;44.80;;;;;;5055438;28;20033;-38
2021/08/13 11:41:19;;;;;;;9.05;2.80;;;28.30;45.10;;;;;;5055068;28;20096;-35
2021/08/13 11:43:47;;;;;;;2.85;2.13;;;28.40;43.60;;;;;;5055096;28;20491;-35
2021/08/13 11:46:29;;;;;;;7.97;2.58;;;28.40;44.00;;;;;;5055728;28;20325;-35
2021/08/13 11:49:02;;;;;;;6.68;2.33;;;28.50;44.20;;;;;;5055490;28;20259;-37
2021/08/13 11:51:29;;;;;;;2.97;2.28;;;28.70;43.20;;;;;;5055623;28;20141;-35
2021/08/13 11:53:56;;;;;;;3.42;2.40;;;28.70;42.90;;;;;;5055513;28;20041;-37
2021/08/13 11:56:30;;;;;;;4.38;2.80;;;28.90;43.20;;;;;;5056064;28;20025;-37
2021/08/13 11:59:06;;;;;;;3.97;2.45;;;29.00;42.60;;;;;;5055656;28;20040;-37
2021/08/13 12:01:50;;;;;;;4.07;2.70;;;29.10;43.00;;;;;;5055643;28;20420;-35
2021/08/13 12:04:21;;;;;;;5.68;2.30;;;29.20;42.20;;;;;;5055786;28;20029;-37
2021/08/13 12:07:03;;;;;;;3.78;2.53;;;29.30;42.70;;;;;;5055415;28;20034;-38
2021/08/13 12:09:32;;;;;;;11.45;2.85;;;29.50;42.60;;;;;;5055570;28;20029;-35
2021/08/13 12:11:59;;;;;;;4.07;2.25;;;29.60;41.70;;;;;;5055487;28;20043;-36
2021/08/13 12:14:24;;;;;;;3.65;2.30;;;29.70;42.30;;;;;;5055642;28;20353;-35
2021/08/13 12:16:54;;;;;;;3.92;2.83;;;29.90;41.80;;;;;;5054846;28;20084;-36
2021/08/13 12:19:21;;;;;;;;;;;30.00;41.70;;;;;;5055537;28;20073;-34
2021/08/13 12:22:05;;;;;;;3.58;2.20;;;30.20;42.00;;;;;;5055257;28;20272;-34
2021/08/13 12:24:36;;;;;;;6.68;2.40;;;30.30;41.70;;;;;;5055415;28;20035;-36
2021/08/13 12:27:12;;;;;;;5.00;2.28;;;30.40;39.80;;;;;;5055345;28;20369;-34
2021/08/13 12:29:39;;;;;;;3.88;2.08;;;30.50;40.20;;;;;;5055096;28;20061;-37
2021/08/13 12:32:08;;;;;;;5.28;2.90;;;30.70;40.50;;;;;;5055229;28;20086;-35
2021/08/13 12:34:36;;;;;;;2.60;2.10;;;30.80;40.20;;;;;;5055096;28;20116;-36
2021/08/13 12:37:11;;;;;;;6.13;2.38;;;31.00;40.30;;;;;;5055057;28;20258;-37
2021/08/13 12:39:48;;;;;;;3.35;2.40;;;31.10;39.80;;;;;;5055372;28;20083;-35
2021/08/13 12:42:15;;;;;;;4.53;2.22;;;31.20;39.10;;;;;;5054582;28;20025;-37
2021/08/13 12:44:44;;;;;;;2.78;2.10;;;31.30;38.50;;;;;;5054778;28;20037;-37
2021/08/13 12:47:10;;;;;;;3.03;2.20;;;31.40;39.30;;;;;;5054718;28;20033;-34
2021/08/13 12:49:38;;;;;;;9.27;2.75;;;31.50;39.20;;;;;;5054415;28;20043;-34
2021/08/13 12:52:16;;;;;;;2.30;2.00;;;31.70;39.50;;;;;;5054317;28;20382;-35